This is the latest recevied weather packets stored in our database for station/object SA6GOM-3. If no packets are shown the sender has not sent any weather packets the latest 10 day(s).
| Time | Temp. | Humidity | Pressure | Rain* | Wind** | Luminosity | Snow |
|---|---|---|---|---|---|---|---|
| 1778232936 | 20° C | 21% | 1023.8 hPa | - | - | - | - |
| 1778229336 | 26.67° C | 16% | 1023.9 hPa | - | - | - | - |
| 1778225736 | 18.33° C | 16% | 1023.9 hPa | - | - | - | - |
| 1778222136 | 24.44° C | 23% | 1023.7 hPa | - | - | - | - |
| 1778218536 | 21.11° C | 25% | 1023.7 hPa | - | - | - | - |
| 1778214936 | 17.78° C | 29% | 1023.2 hPa | - | - | - | - |
| 1778211336 | -1.11° C | 70% | 1023.3 hPa | - | - | - | - |
| 1778207735 | -1.11° C | 67% | 1023 hPa | - | - | - | - |
| 1778204135 | -0.56° C | 65% | 1022.8 hPa | - | - | - | - |
| 1778200535 | 0° C | 64% | 1022.2 hPa | - | - | - | - |
| 1778196935 | 0.56° C | 64% | 1021.8 hPa | - | - | - | - |
| 1778193335 | 1.67° C | 60% | 1021.4 hPa | - | - | - | - |
| 1778189735 | 2.78° C | 57% | 1021.1 hPa | - | - | - | - |
| 1778186135 | 4.44° C | 56% | 1020.5 hPa | - | - | - | - |
| 1778182535 | 6.67° C | 49% | 1019.9 hPa | - | - | - | - |
| 1778178935 | 8.89° C | 40% | 1019 hPa | - | - | - | - |
| 1778175335 | 11.67° C | 35% | 1018.5 hPa | - | - | - | - |
| 1778171735 | 13.33° C | 29% | 1018 hPa | - | - | - | - |
| 1778168135 | 15° C | 27% | 1017.8 hPa | - | - | - | - |
| 1778164535 | 16.67° C | 25% | 1017.5 hPa | - | - | - | - |
| 1778160934 | 17.78° C | 26% | 1017.2 hPa | - | - | - | - |
| 1778157334 | 19.44° C | 25% | 1017 hPa | - | - | - | - |
| 1778153734 | 18.89° C | 28% | 1016.9 hPa | - | - | - | - |
| 1778150134 | 18.89° C | 30% | 1017.1 hPa | - | - | - | - |
| 1778146534 | 18.89° C | 28% | 1016.6 hPa | - | - | - | - |
* Rain since midnight (hover to see other rain measurements)
** Current wind speed in m/s (hover to see current wind gust speed)